Time;durP1;ratioP1;P1;durP2;ratioP2;P2;SDS_P1;SDS_P2;PMS_P1;PMS_P2;Temp;Humidity;BMP_temperature;BMP_pressure;BME280_temperature;BME280_humidity;BME280_pressure;Samples;Min_cycle;Max_cycle;Signal;HPM_P1;HPM_P2
2020/12/04 00:01:32;;;;;;;33.42;16.10;;;;;;;2.51;79.73;99448.31;4993544;28;20038;-78
2020/12/04 00:03:58;;;;;;;35.55;16.35;;;;;;;2.30;79.33;99413.19;4975886;28;20041;-77
2020/12/04 00:06:23;;;;;;;31.75;16.95;;;;;;;2.41;79.65;99437.28;4960277;28;20030;-75
2020/12/04 00:08:49;;;;;;;33.28;15.73;;;;;;;2.30;79.60;99424.56;4993611;28;20030;-74
2020/12/04 00:11:14;;;;;;;34.17;16.65;;;;;;;2.28;79.53;99421.16;4975628;28;20528;-75
2020/12/04 00:13:40;;;;;;;34.28;16.85;;;;;;;2.48;79.55;99458.97;4976196;28;20554;-74
2020/12/04 00:16:05;;;;;;;33.72;16.38;;;;;;;2.32;80.05;99442.06;4976051;28;20065;-74
2020/12/04 00:18:30;;;;;;;32.53;16.50;;;;;;;2.47;79.89;99467.78;4993259;28;20066;-74
2020/12/04 00:20:56;;;;;;;33.72;16.05;;;;;;;2.40;79.86;99443.47;4960128;28;20038;-74
2020/12/04 00:23:21;;;;;;;32.47;16.17;;;;;;;2.50;79.81;99449.22;4993161;28;20467;-76
2020/12/04 00:25:47;;;;;;;31.13;15.55;;;;;;;2.53;79.44;99441.25;4993551;28;20035;-75
2020/12/04 00:28:12;;;;;;;29.25;15.23;;;;;;;2.36;79.90;99431.38;4993064;28;20034;-74
2020/12/04 00:30:38;;;;;;;27.20;15.15;;;;;;;2.40;80.13;99450.53;4945064;28;20522;-76
2020/12/04 00:33:03;;;;;;;33.30;15.50;;;;;;;2.34;80.41;99456.91;4996801;28;20045;-76
2020/12/04 00:35:29;;;;;;;34.42;15.43;;;;;;;2.22;80.75;99442.44;4979843;28;20464;-76
2020/12/04 00:37:54;;;;;;;34.03;15.55;;;;;;;2.33;80.66;99449.06;4997091;28;20117;-77
2020/12/04 00:40:20;;;;;;;30.40;15.32;;;;;;;2.30;80.61;99445.63;4979886;28;20190;-76
2020/12/04 00:42:46;;;;;;;33.72;15.73;;;;;;;2.36;80.61;99451.56;4997067;28;20450;-76
2020/12/04 00:45:15;;;;;;;32.92;16.42;;;;;;;1.93;80.84;99387.47;4979278;28;20061;-75
2020/12/04 00:47:41;;;;;;;34.45;15.80;;;;;;;2.29;80.68;99450.94;4996897;28;20042;-76
2020/12/04 00:50:07;;;;;;;30.58;14.88;;;;;;;2.01;80.73;99416.94;4996624;28;20162;-76
2020/12/04 00:52:32;;;;;;;31.83;16.08;;;;;;;2.18;81.17;99438.22;4996984;28;20113;-75
2020/12/04 00:54:58;;;;;;;30.88;15.60;;;;;;;2.15;81.09;99437.47;4996974;28;20124;-78
2020/12/04 00:57:23;;;;;;;31.88;14.80;;;;;;;2.06;81.19;99432.56;4996557;28;20039;-78
2020/12/04 00:59:48;;;;;;;33.03;14.90;;;;;;;1.99;81.45;99424.91;4963396;28;20460;-77
2020/12/04 01:02:14;;;;;;;30.73;15.77;;;;;;;1.92;81.44;99427.81;4947268;28;20066;-77
2020/12/04 01:04:40;;;;;;;30.95;14.55;;;;;;;1.82;82.21;99434.34;4963321;28;20041;-78
2020/12/04 01:07:05;;;;;;;29.02;14.73;;;;;;;1.76;82.41;99421.44;4979250;28;20092;-78
2020/12/04 01:09:31;;;;;;;31.52;15.13;;;;;;;1.73;82.58;99417.13;4997056;28;20109;-79
2020/12/04 01:11:57;;;;;;;31.80;15.27;;;;;;;1.66;82.84;99413.91;4963250;28;20038;-78
2020/12/04 01:14:22;;;;;;;33.20;16.25;;;;;;;1.70;82.93;99427.78;4996237;28;20479;-79
2020/12/04 01:16:48;;;;;;;32.08;16.10;;;;;;;1.71;82.97;99414.56;4979063;28;20387;-78
2020/12/04 01:19:13;;;;;;;31.33;15.25;;;;;;;1.57;82.95;99403.72;4978897;28;20440;-76
2020/12/04 01:21:39;;;;;;;30.65;14.45;;;;;;;1.26;83.02;99348.81;4979060;28;20034;-77
2020/12/04 01:24:04;;;;;;;30.20;15.38;;;;;;;1.59;83.02;99412.41;4996181;28;20030;-77
2020/12/04 01:26:30;;;;;;;31.08;15.70;;;;;;;1.42;83.34;99394.63;4978875;28;20030;-77
2020/12/04 01:28:55;;;;;;;31.17;14.70;;;;;;;1.54;83.25;99438.00;4978835;28;20042;-75
2020/12/04 01:31:21;;;;;;;32.83;15.38;;;;;;;1.43;83.26;99408.63;4962301;28;20093;-76
2020/12/04 01:33:46;;;;;;;30.33;14.55;;;;;;;1.42;83.61;99383.25;4979200;28;20523;-75
2020/12/04 01:36:14;;;;;;;31.58;15.43;;;;;;;1.54;83.36;99395.06;4978673;28;20483;-75
2020/12/04 01:38:39;;;;;;;33.78;16.25;;;;;;;1.33;84.29;99401.97;4996094;28;20085;-77
2020/12/04 01:41:05;;;;;;;37.38;16.85;;;;;;;1.16;83.89;99350.06;4978370;28;20050;-76
2020/12/04 01:43:30;;;;;;;33.63;15.50;;;;;;;1.21;83.42;99350.75;4995909;28;20038;-77
2020/12/04 01:45:58;;;;;;;30.77;15.23;;;;;;;1.38;83.92;99379.03;4978666;28;20042;-77
2020/12/04 01:48:24;;;;;;;30.15;15.32;;;;;;;1.30;83.84;99381.09;4978308;28;20571;-76
2020/12/04 01:50:51;;;;;;;31.83;16.27;;;;;;;1.36;83.89;99381.72;4995742;28;20078;-77
2020/12/04 01:53:20;;;;;;;34.90;15.65;;;;;;;1.34;84.15;99377.41;4995652;28;20105;-75
2020/12/04 01:55:46;;;;;;;31.13;15.63;;;;;;;1.17;84.07;99364.06;4978363;28;20069;-79
2020/12/04 01:58:13;;;;;;;31.98;15.85;;;;;;;1.38;83.96;99369.38;4977955;28;20193;-77
2020/12/04 02:00:38;;;;;;;33.95;15.85;;;;;;;1.33;83.96;99354.69;4995825;28;20037;-75
2020/12/04 02:03:07;;;;;;;36.08;16.38;;;;;;;1.43;83.85;99356.91;4978100;28;20449;-74
2020/12/04 02:05:34;;;;;;;34.22;15.60;;;;;;;1.24;83.28;99321.72;4995538;28;20030;-77
2020/12/04 02:08:07;;;;;;;31.05;16.10;;;;;;;1.50;83.05;99360.19;4978085;28;20034;-76
2020/12/04 02:10:48;;;;;;;34.22;16.30;;;;;;;1.59;82.99;99345.84;4978163;28;20368;-78
2020/12/04 02:13:14;;;;;;;32.47;15.77;;;;;;;1.51;82.73;99330.34;4995200;28;20062;-78
2020/12/04 02:15:40;;;;;;;34.00;16.17;;;;;;;1.69;82.42;99341.94;4995756;28;20050;-76
2020/12/04 02:18:06;;;;;;;30.05;14.43;;;;;;;1.61;82.39;99333.50;4995117;28;20034;-76
2020/12/04 02:20:35;;;;;;;31.52;15.82;;;;;;;1.46;82.75;99328.84;4995530;28;20441;-75
2020/12/04 02:23:01;;;;;;;31.63;15.05;;;;;;;1.55;82.68;99353.00;4995172;28;20038;-77
2020/12/04 02:25:26;;;;;;;32.67;15.43;;;;;;;1.40;83.14;99341.28;4994801;28;20077;-76
2020/12/04 02:27:52;;;;;;;30.65;15.68;;;;;;;1.15;83.35;99307.16;4995391;28;20069;-76
2020/12/04 02:30:29;;;;;;;32.22;15.60;;;;;;;1.51;83.21;99342.63;4994905;28;20456;-76
2020/12/04 02:32:55;;;;;;;31.70;15.93;;;;;;;1.47;83.27;99341.91;4977737;28;20391;-76
2020/12/04 02:35:20;;;;;;;32.45;16.00;;;;;;;1.48;83.35;99346.25;4994597;28;20034;-75
2020/12/04 02:37:46;;;;;;;32.85;14.88;;;;;;;1.07;83.77;99282.13;4994863;28;20037;-74
2020/12/04 02:40:11;;;;;;;33.28;15.85;;;;;;;1.35;83.79;99321.31;4994515;28;20069;-78
2020/12/04 02:42:37;;;;;;;30.20;15.20;;;;;;;1.57;83.61;99334.53;4995058;28;20113;-76
2020/12/04 02:45:03;;;;;;;32.17;15.57;;;;;;;1.72;82.84;99326.91;4977600;28;20046;-77
2020/12/04 02:47:28;;;;;;;30.52;15.60;;;;;;;1.70;82.44;99323.47;4994635;28;20046;-76
2020/12/04 02:49:54;;;;;;;30.70;14.23;;;;;;;1.78;82.72;99340.72;4976854;28;20046;-79
2020/12/04 02:52:23;;;;;;;33.55;15.95;;;;;;;1.77;82.45;99341.66;4994413;28;20033;-78
2020/12/04 02:54:49;;;;;;;33.40;16.13;;;;;;;1.79;82.35;99316.16;4994189;28;20502;-79
2020/12/04 02:57:15;;;;;;;31.42;15.85;;;;;;;1.92;81.83;99330.50;4994425;28;20042;-79
2020/12/04 02:59:40;;;;;;;30.50;15.40;;;;;;;1.94;81.22;99324.31;4994480;28;20041;-79
2020/12/04 03:02:05;;;;;;;33.08;14.90;;;;;;;1.97;81.29;99332.06;4976970;28;20447;-75
2020/12/04 03:04:31;;;;;;;30.27;15.15;;;;;;;1.89;81.66;99301.72;4976739;28;20041;-74
2020/12/04 03:06:56;;;;;;;27.55;14.48;;;;;;;2.01;81.35;99327.53;4977018;28;20037;-79
2020/12/04 03:09:22;;;;;;;31.58;15.93;;;;;;;2.01;81.13;99317.00;4944831;28;20038;-80
2020/12/04 03:11:47;;;;;;;32.17;15.82;;;;;;;2.01;80.90;99309.09;4994523;28;20026;-79
2020/12/04 03:14:13;;;;;;;31.42;15.77;;;;;;;2.11;80.80;99315.72;4976996;28;20030;-79
2020/12/04 03:16:39;;;;;;;34.95;15.88;;;;;;;1.94;80.91;99286.63;4994559;28;20038;-78
2020/12/04 03:19:04;;;;;;;31.88;16.05;;;;;;;2.06;80.70;99298.41;4977563;28;20073;-83
2020/12/04 03:21:30;;;;;;;36.47;15.23;;;;;;;1.83;80.42;99254.63;4994896;28;20045;-82
2020/12/04 03:23:55;;;;;;;33.72;14.90;;;;;;;2.08;80.88;99297.44;4995904;28;20061;-85
2020/12/04 03:26:21;;;;;;;34.05;15.73;;;;;;;1.83;80.63;99254.63;4979073;28;20042;-84
2020/12/04 03:28:46;;;;;;;33.03;15.23;;;;;;;2.16;80.52;99308.50;4994831;28;20446;-79
2020/12/04 03:31:12;;;;;;;29.77;15.00;;;;;;;2.19;80.34;99310.13;4993717;28;20041;-77
2020/12/04 03:33:37;;;;;;;30.42;14.43;;;;;;;2.21;80.46;99324.94;4994062;28;20034;-77
2020/12/04 03:36:04;;;;;;;31.25;15.57;;;;;;;2.19;80.57;99326.78;4994290;28;20058;-78
2020/12/04 03:38:29;;;;;;;34.25;16.08;;;;;;;2.29;80.14;99316.75;4993679;28;20891;-76
2020/12/04 03:40:54;;;;;;;32.22;15.20;;;;;;;2.29;79.95;99309.69;4994171;28;20034;-78
2020/12/04 03:43:20;;;;;;;34.35;15.85;;;;;;;2.20;80.32;99296.91;4975977;28;20039;-77
2020/12/04 03:45:45;;;;;;;35.58;15.10;;;;;;;2.24;79.81;99311.69;4976540;28;20057;-77
2020/12/04 03:48:11;;;;;;;29.83;15.50;;;;;;;2.20;80.53;99304.81;4993452;28;20364;-77
2020/12/04 03:50:36;;;;;;;32.03;15.23;;;;;;;2.33;80.29;99301.69;4976286;28;20538;-82
2020/12/04 03:53:02;;;;;;;34.38;16.02;;;;;;;2.34;80.16;99316.56;4993704;28;20491;-78
2020/12/04 03:55:27;;;;;;;31.17;14.77;;;;;;;2.28;80.55;99321.16;4993614;28;20092;-80
2020/12/04 03:57:52;;;;;;;33.40;15.45;;;;;;;2.30;80.28;99315.81;4976461;28;20033;-80
2020/12/04 04:00:18;;;;;;;30.48;15.32;;;;;;;2.12;79.46;99262.16;4959805;28;20399;-80
2020/12/04 04:02:43;;;;;;;32.22;15.07;;;;;;;2.38;79.81;99284.78;4993784;28;20031;-80
2020/12/04 04:05:09;;;;;;;31.27;14.95;;;;;;;2.48;79.62;99296.63;4975357;28;20494;-80
2020/12/04 04:07:34;;;;;;;30.27;14.77;;;;;;;2.44;79.63;99300.31;4993302;28;20041;-79
2020/12/04 04:09:59;;;;;;;33.17;14.85;;;;;;;2.51;79.42;99314.06;4959984;28;20041;-81
2020/12/04 04:12:25;;;;;;;31.17;14.65;;;;;;;2.51;79.56;99307.03;4976061;28;20042;-80
2020/12/04 04:14:50;;;;;;;31.23;15.07;;;;;;;2.44;79.71;99299.47;4976258;28;20475;-78
2020/12/04 04:17:16;;;;;;;28.08;14.23;;;;;;;2.45;79.60;99290.66;4976179;28;20038;-78
2020/12/04 04:19:41;;;;;;;29.40;14.15;;;;;;;2.55;79.60;99284.91;4976053;28;20476;-78
2020/12/04 04:22:07;;;;;;;30.83;14.55;;;;;;;2.38;79.55;99262.88;4976455;28;20480;-78
2020/12/04 04:24:32;;;;;;;28.00;13.90;;;;;;;2.67;79.29;99316.91;4993348;28;20034;-78
2020/12/04 04:26:57;;;;;;;29.77;14.55;;;;;;;2.56;79.84;99305.06;4976444;28;20116;-80
2020/12/04 04:29:23;;;;;;;31.60;14.65;;;;;;;2.69;79.29;99305.38;4993170;28;20030;-77
2020/12/04 04:31:50;;;;;;;32.88;15.35;;;;;;;2.60;79.47;99295.25;4976365;28;20144;-80
2020/12/04 04:34:16;;;;;;;28.15;14.35;;;;;;;2.66;78.79;99288.88;4975800;28;20039;-78
2020/12/04 04:36:41;;;;;;;33.30;14.88;;;;;;;2.41;79.05;99257.47;4993609;28;20036;-80
2020/12/04 04:39:06;;;;;;;31.13;14.98;;;;;;;2.67;78.52;99294.06;4960342;28;20050;-81
2020/12/04 04:41:32;;;;;;;29.90;14.52;;;;;;;2.60;78.81;99295.25;4993046;28;20372;-79
2020/12/04 04:43:57;;;;;;;28.77;13.77;;;;;;;2.61;79.50;99307.50;4975981;28;20502;-78
2020/12/04 04:46:42;;;;;;;27.85;14.10;;;;;;;2.78;78.90;99320.78;4975635;28;20034;-79
2020/12/04 04:49:27;;;;;;;31.45;14.65;;;;;;;2.79;78.51;99327.75;4993445;28;20038;-83
2020/12/04 04:51:55;;;;;;;28.95;13.65;;;;;;;2.51;78.64;99274.56;4977016;28;20439;-78
2020/12/04 04:54:21;;;;;;;28.77;14.68;;;;;;;2.71;79.00;99293.03;4975601;28;20039;-77
2020/12/04 04:56:48;;;;;;;24.67;13.48;;;;;;;2.59;78.84;99288.25;4975858;28;20088;-79
2020/12/04 04:59:14;;;;;;;27.40;13.85;;;;;;;2.76;78.63;99322.63;4976276;28;20034;-80
2020/12/04 05:01:40;;;;;;;30.45;14.10;;;;;;;2.73;78.94;99328.03;4992810;28;20137;-80
2020/12/04 05:04:05;;;;;;;27.55;13.88;;;;;;;2.50;79.16;99286.03;4993055;28;20084;-78
2020/12/04 05:06:35;;;;;;;28.90;13.65;;;;;;;2.74;79.66;99329.75;4992954;28;20106;-79
2020/12/04 05:09:03;;;;;;;30.38;14.23;;;;;;;2.64;80.43;99317.03;4993134;28;20030;-78
2020/12/04 05:11:30;;;;;;;28.02;14.13;;;;;;;2.57;79.70;99290.97;4992617;28;20041;-77
2020/12/04 05:14:13;;;;;;;30.05;14.55;;;;;;;2.72;80.67;99315.81;4993038;28;20153;-78
2020/12/04 05:16:40;;;;;;;30.38;14.57;;;;;;;2.53;80.27;99267.50;4994056;28;20030;-78
2020/12/04 05:19:06;;;;;;;28.13;13.68;;;;;;;2.58;80.92;99287.41;4962448;28;20112;-76
2020/12/04 05:21:32;;;;;;;27.90;14.80;;;;;;;2.71;80.65;99308.81;4962770;28;20045;-76
2020/12/04 05:23:59;;;;;;;30.08;14.50;;;;;;;2.68;80.62;99319.47;4979008;28;20031;-77
2020/12/04 05:26:29;;;;;;;29.65;14.93;;;;;;;2.71;80.84;99323.78;4996114;28;20065;-77
2020/12/04 05:28:54;;;;;;;32.65;16.00;;;;;;;2.69;80.94;99326.44;4978694;28;20030;-78
2020/12/04 05:31:28;;;;;;;30.20;15.68;;;;;;;2.70;80.97;99329.94;4995879;28;20038;-78
2020/12/04 05:33:54;;;;;;;32.15;15.27;;;;;;;2.71;81.01;99340.44;4978948;28;20141;-77
2020/12/04 05:36:24;;;;;;;31.95;15.75;;;;;;;2.67;81.70;99357.25;4995789;28;20061;-78
2020/12/04 05:38:52;;;;;;;32.00;15.23;;;;;;;2.55;81.78;99334.09;4996042;28;20081;-80
2020/12/04 05:41:17;;;;;;;29.38;15.48;;;;;;;2.48;82.24;99324.72;4978466;28;20034;-77
2020/12/04 05:43:43;;;;;;;34.70;14.70;;;;;;;2.46;81.86;99310.78;4978350;28;20391;-74
2020/12/04 05:46:25;;;;;;;29.23;14.05;;;;;;;2.69;81.65;99347.50;4996015;28;20035;-74
2020/12/04 05:49:01;;;;;;;29.25;14.32;;;;;;;2.50;81.68;99315.84;4996144;28;20360;-74
2020/12/04 05:51:29;;;;;;;33.28;15.63;;;;;;;2.66;82.21;99347.66;4977696;28;20381;-74
2020/12/04 05:53:56;;;;;;;33.75;16.65;;;;;;;2.64;81.65;99348.66;4978499;28;20057;-74
2020/12/04 05:56:22;;;;;;;33.67;15.73;;;;;;;2.72;81.78;99362.34;4961983;28;20036;-74
2020/12/04 05:58:49;;;;;;;34.70;16.17;;;;;;;2.57;82.02;99341.00;4995795;28;20031;-77
2020/12/04 06:01:17;;;;;;;31.88;15.43;;;;;;;2.72;81.53;99363.19;4978313;28;20093;-73
2020/12/04 06:03:48;;;;;;;33.63;14.88;;;;;;;2.66;81.70;99355.56;4995127;28;20037;-74
2020/12/04 06:06:29;;;;;;;33.47;16.58;;;;;;;2.68;81.63;99353.69;4995369;28;20118;-76
2020/12/04 06:09:04;;;;;;;36.55;16.25;;;;;;;2.70;81.34;99341.34;4995290;28;20030;-76
2020/12/04 06:11:40;;;;;;;31.73;15.85;;;;;;;2.67;81.41;99349.34;4995097;28;20033;-76
2020/12/04 06:14:20;;;;;;;30.05;14.55;;;;;;;2.68;81.28;99353.69;4978147;28;20368;-73
2020/12/04 06:17:10;;;;;;;30.83;14.68;;;;;;;2.66;81.11;99355.56;4995572;28;20113;-72
2020/12/04 06:19:38;;;;;;;27.08;14.73;;;;;;;2.69;81.30;99368.56;4987671;28;20062;-73
2020/12/04 06:22:09;;;;;;;32.00;15.07;;;;;;;2.71;81.52;99368.53;4995417;28;20398;-73
2020/12/04 06:24:52;;;;;;;29.35;14.82;;;;;;;2.79;80.98;99361.13;4995094;28;20034;-75
2020/12/04 06:27:37;;;;;;;31.08;14.73;;;;;;;2.72;80.97;99362.34;4994769;28;20026;-75
2020/12/04 06:30:04;;;;;;;29.55;15.02;;;;;;;2.71;81.06;99356.22;4995075;28;20084;-74
2020/12/04 06:32:48;;;;;;;28.42;14.27;;;;;;;2.65;81.15;99335.41;4977785;28;20042;-75
2020/12/04 06:35:15;;;;;;;31.10;14.48;;;;;;;2.57;81.24;99329.59;4977655;28;20031;-74
2020/12/04 06:37:44;;;;;;;29.10;13.88;;;;;;;2.85;80.95;99371.44;4994723;28;20475;-73
2020/12/04 06:40:30;;;;;;;29.15;14.73;;;;;;;2.75;81.36;99352.53;4995144;28;20046;-74
2020/12/04 06:42:57;;;;;;;31.15;15.05;;;;;;;2.76;81.28;99353.38;4995065;28;20034;-77
2020/12/04 06:45:23;;;;;;;30.10;14.07;;;;;;;2.89;81.26;99359.81;4977654;28;20498;-78
2020/12/04 06:48:18;;;;;;;29.75;14.63;;;;;;;2.87;81.21;99378.34;4977098;28;20113;-73
2020/12/04 06:50:46;;;;;;;30.25;14.02;;;;;;;2.73;80.65;99346.47;4994394;28;20050;-73
2020/12/04 06:53:12;;;;;;;32.00;14.68;;;;;;;2.92;80.99;99391.31;4994554;28;20109;-73
2020/12/04 06:55:39;;;;;;;30.73;14.65;;;;;;;2.96;80.76;99392.91;4994465;28;20042;-73
2020/12/04 06:58:05;;;;;;;33.03;15.20;;;;;;;2.86;80.42;99366.09;4977254;28;20427;-74
2020/12/04 07:00:31;;;;;;;29.20;14.93;;;;;;;2.80;80.42;99360.25;4994169;28;20058;-73
2020/12/04 07:03:02;;;;;;;31.23;15.05;;;;;;;2.65;80.62;99324.03;4977425;28;20035;-71
2020/12/04 07:05:28;;;;;;;30.33;14.75;;;;;;;3.06;80.67;99380.19;4994423;28;20037;-72
2020/12/04 07:08:08;;;;;;;31.25;15.50;;;;;;;3.06;80.85;99380.19;4977238;28;20081;-72
2020/12/04 07:10:34;;;;;;;30.70;15.10;;;;;;;3.00;80.91;99367.28;4994003;28;20034;-71
2020/12/04 07:13:01;;;;;;;28.83;14.82;;;;;;;3.06;80.50;99364.38;4994264;28;20072;-72
2020/12/04 07:15:28;;;;;;;30.88;14.77;;;;;;;2.81;80.61;99336.47;4994112;28;20049;-71
2020/12/04 07:17:54;;;;;;;28.63;14.82;;;;;;;3.01;80.84;99376.91;4994331;28;20086;-72
2020/12/04 07:20:20;;;;;;;29.38;14.50;;;;;;;3.08;80.77;99376.56;4960830;28;20034;-72
2020/12/04 07:22:45;;;;;;;30.45;15.30;;;;;;;3.06;80.80;99361.75;4993863;28;20143;-72
2020/12/04 07:25:11;;;;;;;30.92;14.85;;;;;;;3.16;80.47;99379.72;4960615;28;20142;-72
2020/12/04 07:27:37;;;;;;;31.17;14.20;;;;;;;3.10;80.48;99382.63;4993982;28;20033;-72
2020/12/04 07:30:16;;;;;;;31.35;14.93;;;;;;;3.19;80.23;99394.56;4994185;28;20058;-72
2020/12/04 07:32:49;;;;;;;28.10;14.18;;;;;;;3.03;80.50;99361.88;4993985;28;20086;-71
2020/12/04 07:35:15;;;;;;;30.30;14.75;;;;;;;3.20;80.16;99385.72;4994283;28;20030;-72
2020/12/04 07:37:40;;;;;;;30.17;14.85;;;;;;;2.94;80.64;99357.00;4976500;28;20057;-72
2020/12/04 07:40:06;;;;;;;31.23;14.48;;;;;;;3.28;79.92;99396.78;4993628;28;20042;-73
2020/12/04 07:42:31;;;;;;;28.48;13.20;;;;;;;3.32;79.91;99387.81;4960473;28;20471;-71
2020/12/04 07:44:57;;;;;;;27.45;13.77;;;;;;;3.29;80.00;99392.38;4976612;28;20034;-72
2020/12/04 07:47:22;;;;;;;27.38;13.73;;;;;;;3.25;79.65;99378.44;4993761;28;20040;-72
2020/12/04 07:49:54;;;;;;;27.25;15.00;;;;;;;3.41;80.49;99416.41;4993345;28;20050;-71
2020/12/04 07:52:22;;;;;;;28.55;15.15;;;;;;;3.42;80.04;99418.13;4976878;28;20069;-72
2020/12/04 07:55:11;;;;;;;28.95;14.77;;;;;;;3.21;80.10;99390.06;4993597;28;20034;-71
2020/12/04 07:57:43;;;;;;;26.90;13.98;;;;;;;3.25;79.09;99372.31;4976187;28;20122;-72
2020/12/04 08:00:09;;;;;;;26.42;13.52;;;;;;;3.55;79.38;99414.91;4993727;28;20034;-72
2020/12/04 08:02:34;;;;;;;27.98;14.43;;;;;;;3.52;79.29;99399.25;4976281;28;20121;-72
2020/12/04 08:05:00;;;;;;;28.38;14.27;;;;;;;3.59;78.58;99419.16;4993606;28;20058;-72
2020/12/04 08:07:30;;;;;;;32.78;14.52;;;;;;;3.32;79.30;99374.63;4993439;28;20087;-72
2020/12/04 08:09:56;;;;;;;28.42;14.57;;;;;;;3.47;78.92;99388.03;4976288;28;20128;-72
2020/12/04 08:12:40;;;;;;;25.83;13.43;;;;;;;3.58;78.77;99402.47;4993601;28;20031;-72
2020/12/04 08:15:05;;;;;;;28.60;13.05;;;;;;;3.61;78.81;99399.69;4993668;28;20559;-72
2020/12/04 08:17:32;;;;;;;25.65;13.27;;;;;;;3.69;78.31;99404.63;4993445;28;20117;-75
2020/12/04 08:20:01;;;;;;;26.75;13.68;;;;;;;3.58;78.10;99391.94;4993845;28;20507;-72
2020/12/04 08:22:28;;;;;;;26.65;12.38;;;;;;;3.87;78.11;99406.41;4976249;28;20034;-72
2020/12/04 08:25:08;;;;;;;27.55;13.52;;;;;;;3.65;78.29;99380.16;4993364;28;20031;-72
2020/12/04 08:27:41;;;;;;;25.80;13.55;;;;;;;3.85;78.14;99412.66;4993244;28;20113;-72
2020/12/04 08:30:08;;;;;;;26.77;13.15;;;;;;;3.90;77.92;99398.34;4975728;28;20034;-72
2020/12/04 08:32:34;;;;;;;28.50;13.27;;;;;;;3.83;77.57;99398.69;4993274;28;20045;-71
2020/12/04 08:35:18;;;;;;;27.98;13.18;;;;;;;3.95;78.10;99404.25;4959651;28;20034;-71
2020/12/04 08:37:48;;;;;;;29.75;13.77;;;;;;;3.94;77.72;99386.72;4993286;28;20131;-72
2020/12/04 08:40:31;;;;;;;27.15;14.38;;;;;;;3.94;77.58;99389.34;4993207;28;20080;-72
2020/12/04 08:43:09;;;;;;;;;;;;;;;4.05;77.33;99407.31;4993655;28;20053;-72
2020/12/04 08:45:34;;;;;;;28.75;13.25;;;;;;;3.91;77.17;99384.22;4993174;28;19913;-72
2020/12/04 08:48:17;;;;;;;26.63;13.07;;;;;;;3.99;77.39;99392.66;4993712;28;20042;-72
2020/12/04 08:50:48;;;;;;;28.40;14.05;;;;;;;4.06;77.60;99418.75;4992660;28;20058;-73
2020/12/04 08:53:15;;;;;;;29.05;13.02;;;;;;;4.08;77.48;99414.25;4997026;28;20100;-72
2020/12/04 08:55:52;;;;;;;26.23;13.55;;;;;;;4.10;77.79;99389.50;4996980;28;20056;-72
2020/12/04 08:58:19;;;;;;;25.23;13.30;;;;;;;4.21;78.57;99403.03;4997128;28;20117;-71
2020/12/04 09:00:46;;;;;;;25.80;13.35;;;;;;;4.08;77.70;99375.53;4996663;28;20034;-72
2020/12/04 09:03:12;;;;;;;27.33;13.85;;;;;;;4.33;78.37;99412.16;4996851;28;20377;-71
2020/12/04 09:05:38;;;;;;;26.88;13.82;;;;;;;4.22;78.87;99409.19;4996365;28;20427;-72
2020/12/04 09:08:05;;;;;;;27.33;13.50;;;;;;;4.30;78.49;99422.88;4996738;28;20037;-72
2020/12/04 09:10:30;;;;;;;27.17;14.13;;;;;;;4.39;78.78;99416.28;4963348;28;20468;-71
2020/12/04 09:12:56;;;;;;;30.33;14.65;;;;;;;4.36;78.41;99409.38;4979239;28;20046;-71
2020/12/04 09:15:22;;;;;;;28.63;13.82;;;;;;;4.22;78.37;99388.91;4979244;28;20034;-72
2020/12/04 09:17:48;;;;;;;25.80;12.52;;;;;;;4.36;78.29;99412.03;4996257;28;20041;-73
2020/12/04 09:20:14;;;;;;;27.38;12.93;;;;;;;4.40;78.11;99424.13;4996372;28;20045;-72
2020/12/04 09:22:41;;;;;;;28.38;13.65;;;;;;;4.38;79.21;99426.00;4996445;28;20038;-71
2020/12/04 09:25:09;;;;;;;26.65;13.45;;;;;;;4.23;79.28;99400.31;4996597;28;20041;-71
2020/12/04 09:27:35;;;;;;;24.83;12.73;;;;;;;4.29;79.78;99413.25;4996453;28;20396;-72
2020/12/04 09:30:01;;;;;;;29.00;13.00;;;;;;;4.42;80.03;99413.50;4978709;28;20049;-72
2020/12/04 09:32:27;;;;;;;25.08;13.52;;;;;;;4.37;80.03;99389.97;4996258;28;20369;-71
2020/12/04 09:34:53;;;;;;;27.55;13.50;;;;;;;4.32;79.63;99368.19;4996032;28;20077;-72
2020/12/04 09:37:31;;;;;;;24.38;12.25;;;;;;;4.50;79.67;99408.72;4979151;28;20583;-71
2020/12/04 09:39:59;;;;;;;28.13;13.45;;;;;;;4.30;80.43;99388.53;4978614;28;20558;-71
2020/12/04 09:42:26;;;;;;;30.13;12.98;;;;;;;4.40;80.26;99383.69;4996150;28;20069;-71
2020/12/04 09:44:52;;;;;;;24.65;12.07;;;;;;;4.47;79.30;99383.31;4995895;28;20034;-71
2020/12/04 09:47:18;;;;;;;25.15;12.75;;;;;;;4.62;79.52;99394.03;4978520;28;20048;-72
2020/12/04 09:49:45;;;;;;;23.67;11.75;;;;;;;4.62;79.27;99388.75;4977843;28;20065;-72
2020/12/04 09:52:12;;;;;;;31.88;13.80;;;;;;;4.43;80.03;99357.13;4996057;28;20037;-71
2020/12/04 09:54:40;;;;;;;31.13;12.52;;;;;;;4.70;78.17;99381.31;4978321;28;20427;-71
2020/12/04 09:57:11;;;;;;;27.55;13.32;;;;;;;4.74;78.91;99380.25;4978365;28;20039;-72
2020/12/04 09:59:38;;;;;;;29.15;14.07;;;;;;;4.50;77.59;99325.06;4995809;28;20039;-71
2020/12/04 10:02:04;;;;;;;25.85;12.60;;;;;;;4.81;78.14;99376.34;4995713;28;20389;-71
2020/12/04 10:04:30;;;;;;;25.23;11.95;;;;;;;4.84;78.42;99365.63;4996147;28;20038;-71
2020/12/04 10:06:56;;;;;;;26.02;12.52;;;;;;;4.73;77.48;99333.59;4978428;28;20479;-71
2020/12/04 10:09:23;;;;;;;24.50;11.00;;;;;;;4.58;76.97;99338.72;4995829;28;20045;-71
2020/12/04 10:11:49;;;;;;;27.63;12.70;;;;;;;4.53;78.59;99343.38;4977876;28;20065;-71
2020/12/04 10:14:15;;;;;;;23.77;12.05;;;;;;;4.65;78.00;99349.84;4995782;28;20507;-71
2020/12/04 10:16:42;;;;;;;26.45;13.38;;;;;;;4.76;78.82;99362.53;4995342;28;20081;-73
2020/12/04 10:19:08;;;;;;;24.08;12.32;;;;;;;4.62;78.31;99339.41;4978251;28;20476;-72
2020/12/04 10:21:35;;;;;;;26.45;11.80;;;;;;;4.78;77.85;99360.66;4962192;28;20034;-71
2020/12/04 10:24:02;;;;;;;26.90;12.48;;;;;;;4.75;78.73;99359.03;4995117;28;20061;-71
2020/12/04 10:26:27;;;;;;;23.80;12.23;;;;;;;4.66;77.88;99324.28;4995381;28;20030;-71
2020/12/04 10:28:53;;;;;;;24.40;12.15;;;;;;;4.57;76.76;99325.59;4994824;28;20031;-73
2020/12/04 10:31:18;;;;;;;24.80;13.07;;;;;;;4.83;78.13;99354.22;4995291;28;20046;-71
2020/12/04 10:33:44;;;;;;;24.40;12.50;;;;;;;4.85;77.55;99336.47;4977527;28;20065;-71
2020/12/04 10:36:09;;;;;;;25.27;12.70;;;;;;;4.84;77.75;99344.50;4995271;28;20035;-73
2020/12/04 10:38:34;;;;;;;23.55;11.75;;;;;;;4.77;77.36;99311.38;4982063;28;20042;-71
2020/12/04 10:41:00;;;;;;;25.17;12.05;;;;;;;4.76;77.08;99289.41;4995344;28;20085;-72
2020/12/04 10:43:26;;;;;;;27.15;12.65;;;;;;;4.98;78.16;99331.41;4977569;28;20045;-72
2020/12/04 10:45:52;;;;;;;23.70;12.32;;;;;;;5.06;76.77;99323.94;4961657;28;20137;-72
2020/12/04 10:48:18;;;;;;;24.20;12.07;;;;;;;5.09;76.41;99321.13;4995011;28;20045;-72
2020/12/04 10:50:45;;;;;;;25.52;12.77;;;;;;;4.99;77.66;99313.75;4994809;28;20396;-73
2020/12/04 10:53:11;;;;;;;21.75;11.90;;;;;;;5.04;77.06;99335.53;4994927;28;20038;-70
2020/12/04 10:55:36;;;;;;;25.58;12.48;;;;;;;5.06;76.36;99323.09;4977586;28;20038;-72
2020/12/04 10:58:02;;;;;;;26.20;12.30;;;;;;;5.05;76.51;99332.81;4994336;28;20098;-72
2020/12/04 11:00:27;;;;;;;23.33;12.02;;;;;;;4.87;77.21;99325.84;4994562;28;20035;-71
2020/12/04 11:03:00;;;;;;;23.55;12.05;;;;;;;4.95;77.50;99336.00;4977133;28;20035;-71
2020/12/04 11:05:38;;;;;;;26.07;13.27;;;;;;;4.87;78.84;99328.47;4994789;28;20035;-71
2020/12/04 11:08:04;;;;;;;27.23;13.00;;;;;;;4.85;77.93;99319.78;4994255;28;20030;-71
2020/12/04 11:10:29;;;;;;;26.27;12.43;;;;;;;4.99;78.10;99340.19;4994356;28;20453;-72
2020/12/04 11:12:54;;;;;;;24.00;12.48;;;;;;;4.85;78.28;99293.34;4944900;28;20045;-72
2020/12/04 11:15:20;;;;;;;26.88;12.98;;;;;;;4.88;77.39;99293.19;4976573;28;20121;-71
2020/12/04 11:17:45;;;;;;;29.40;14.68;;;;;;;4.99;77.35;99306.69;4994324;28;20084;-71
2020/12/04 11:20:11;;;;;;;33.35;16.48;;;;;;;5.06;77.50;99317.81;4976887;28;20070;-72
2020/12/04 11:22:37;;;;;;;27.92;13.93;;;;;;;5.02;77.03;99301.25;4977093;28;20037;-72
2020/12/04 11:25:03;;;;;;;26.20;13.93;;;;;;;5.25;76.80;99338.84;4993951;28;20038;-72
2020/12/04 11:27:29;;;;;;;27.63;14.93;;;;;;;5.24;77.28;99331.84;4994273;28;20084;-72
2020/12/04 11:29:54;;;;;;;27.35;12.95;;;;;;;5.30;76.68;99335.00;4993755;28;20046;-71